Portada
METAR-TAF:

METAR-TAF

Aeroports :

Tennant Creek, Austràlia

latitud: 19-38-04S, longitud: 134-11-00E, altitud: 377 m

Observació

L'informe es va fer fa 1 hora i 5 minuts, a les 23:00 UTC
Vent 9 kt del Nord/Nord-Oest
Temperatura 31°C
Humitat 43%
Pressió 1013 hPa
Visibilitat 10 km o més
Núvols disperses a una alçada de 8500 ft

METAR: YTNK 012300Z AUTO 33009KT 9999 // SCT085 31/17 Q1013

Hora: 09:35 (00:05 UTC)

Pronòstic

L'informe es va fer fa 17 hores i 38 minuts, a les 06:27 UTC
Pronòstic vàlid del 01 a les 08 UTC al 01 a les 20 UTC
Vent 10 kt del Est
Visibilitat 10 km o més
sense núvols per sota de 1500 mi sense presència de cumulonimbus.
A partir de les 01 a les 1400 UTC
Vent 5 kt del Nord/Nord-Est
Visibilitat 10 km o més
sense núvols per sota de 1500 mi sense presència de cumulonimbus.

TAF: YTNK 010627Z 0108/0120 08010KT CAVOK FM011400 02005KT CAVOK

Observacions i pronòstics meteorològics de més de 4000 aeroports (METAR i TAF).

Les estacions disponibles són els punts grocs i vermells al mapa.

Posi el ratolí al punt desitjat per veure el nom de l'estació.

Feu clic per veure les observacions i els pronòstics meteorològics.

Per canviar el mapa: feu clic els botons verds amb una creu de color negre per apropar; al botó verd amb un guió per allunyar la imatge; o en les fletxes verdes per a mapes adjacents.


METAR-TAF: